createdAt,value
2023-04-02T00:00:21.535Z,85.87
2023-04-02T00:04:22.253Z,85.35
2023-04-02T00:07:49.072Z,85.51
2023-04-02T00:11:12.340Z,85.48
2023-04-02T00:14:36.395Z,85.29
2023-04-02T00:17:58.805Z,84.79
2023-04-02T00:21:23.563Z,85.20
2023-04-02T00:24:47.278Z,85.12
2023-04-02T00:28:15.198Z,84.70
2023-04-02T00:31:42.425Z,85.24
2023-04-02T00:35:06.316Z,85.09
2023-04-02T00:38:29.770Z,85.12
2023-04-02T00:42:05.260Z,85.23
2023-04-02T00:45:31.205Z,85.00
2023-04-02T00:48:58.986Z,84.55
2023-04-02T00:52:24.692Z,84.93
2023-04-02T00:55:46.933Z,84.49
2023-04-02T00:59:20.879Z,84.68
2023-04-02T01:02:43.725Z,85.14
2023-04-02T01:06:11.719Z,84.78
2023-04-02T01:09:48.788Z,84.88
2023-04-02T01:13:20.362Z,84.71
2023-04-02T01:16:50.724Z,84.51
2023-04-02T01:20:36.773Z,84.85
2023-04-02T01:24:04.173Z,84.72
2023-04-02T01:27:29.943Z,84.81
2023-04-02T01:30:57.259Z,84.95
2023-04-02T01:34:22.196Z,84.66
2023-04-02T01:37:51.559Z,84.47
2023-04-02T01:41:22.119Z,84.96
2023-04-02T01:44:47.988Z,84.85
2023-04-02T01:48:17.089Z,84.48
2023-04-02T01:51:43.222Z,84.57
2023-04-02T01:55:05.798Z,84.55
2023-04-02T01:58:29.662Z,84.77
2023-04-02T02:01:58.659Z,84.37
2023-04-02T02:05:24.219Z,84.13
2023-04-02T02:08:50.513Z,84.29
2023-04-02T02:12:15.415Z,83.78
2023-04-02T02:15:37.792Z,84.35
2023-04-02T02:19:02.994Z,83.88
2023-04-02T02:22:30.522Z,83.88
2023-04-02T02:25:52.856Z,84.11
2023-04-02T02:29:19.641Z,84.13
2023-04-02T02:32:52.193Z,83.92
2023-04-02T02:36:23.297Z,84.36
2023-04-02T02:39:49.888Z,84.56
2023-04-02T02:43:16.941Z,84.34
2023-04-02T02:46:42.792Z,84.12
2023-04-02T02:50:08.931Z,84.21
2023-04-02T02:53:31.596Z,84.40
2023-04-02T02:56:58.689Z,84.17
2023-04-02T03:00:24.769Z,84.04
2023-04-02T03:03:48.639Z,84.12
2023-04-02T03:07:10.831Z,84.68
2023-04-02T03:10:40.552Z,84.09
2023-04-02T03:14:16.641Z,84.94
2023-04-02T03:17:44.047Z,84.71
2023-04-02T03:21:17.406Z,85.08
2023-04-02T03:24:45.997Z,85.23
2023-04-02T03:28:13.657Z,85.22
2023-04-02T03:31:41.211Z,85.00
2023-04-02T03:35:24.366Z,85.11
2023-04-02T03:38:48.410Z,84.80
2023-04-02T03:42:17.919Z,85.41
2023-04-02T03:45:40.830Z,84.88
2023-04-02T03:49:09.357Z,85.39
2023-04-02T03:52:31.645Z,85.68
2023-04-02T03:55:54.286Z,85.77
2023-04-02T03:59:24.362Z,85.47
2023-04-02T04:02:50.948Z,85.63
2023-04-02T04:06:21.549Z,85.72
2023-04-02T04:09:47.891Z,85.46
2023-04-02T04:13:14.989Z,85.87
2023-04-02T04:16:48.660Z,85.66
2023-04-02T04:20:22.184Z,85.72
2023-04-02T04:23:51.731Z,85.37
2023-04-02T04:27:22.661Z,85.50
2023-04-02T04:30:53.614Z,85.23
2023-04-02T04:34:19.980Z,85.12
2023-04-02T04:37:45.078Z,85.33
2023-04-02T04:41:14.487Z,84.41
2023-04-02T04:44:45.501Z,84.63
2023-04-02T04:48:13.924Z,83.84
2023-04-02T04:51:41.018Z,83.03
2023-04-02T04:55:04.343Z,83.01
2023-04-02T04:58:33.363Z,82.44
2023-04-02T05:02:02.048Z,82.14
2023-04-02T05:09:14.651Z,81.58
2023-04-02T05:12:39.064Z,81.17
2023-04-02T05:16:13.056Z,80.68
2023-04-02T05:24:29.779Z,79.99
2023-04-02T05:27:58.909Z,80.05
2023-04-02T05:31:26.938Z,79.41
2023-04-02T05:34:54.969Z,78.66
2023-04-02T05:38:22.034Z,78.92
2023-04-02T05:41:47.751Z,77.90
2023-04-02T05:45:21.621Z,76.80
2023-04-02T05:48:49.636Z,76.86
2023-04-02T05:52:16.775Z,76.00
2023-04-02T05:55:50.483Z,76.40
2023-04-02T05:59:17.015Z,76.16
2023-04-02T06:02:45.274Z,75.34
2023-04-02T06:06:18.715Z,74.80
2023-04-02T06:09:46.898Z,74.07
2023-04-02T06:13:09.887Z,74.27
2023-04-02T06:16:33.611Z,74.58
2023-04-02T06:19:59.154Z,73.66
2023-04-02T06:23:25.988Z,73.24
2023-04-02T06:26:52.883Z,73.44
2023-04-02T06:30:20.355Z,73.21
2023-04-02T06:33:42.037Z,72.07
2023-04-02T06:37:06.807Z,73.29
2023-04-02T06:40:39.468Z,71.29
2023-04-02T06:44:06.223Z,71.05
2023-04-02T06:47:35.650Z,70.42
2023-04-02T06:51:02.695Z,69.39
2023-04-02T06:54:25.188Z,69.47
2023-04-02T06:57:49.208Z,69.35
2023-04-02T07:01:17.360Z,67.34
2023-04-02T07:04:39.325Z,67.43
2023-04-02T07:08:00.842Z,66.93
2023-04-02T07:11:23.913Z,67.70
2023-04-02T07:14:48.276Z,67.12
2023-04-02T07:18:23.274Z,65.69
2023-04-02T07:21:45.174Z,65.25
2023-04-02T07:25:08.061Z,64.86
2023-04-02T07:28:30.609Z,65.34
2023-04-02T07:31:54.248Z,65.35
2023-04-02T07:35:16.269Z,65.10
2023-04-02T07:38:38.415Z,63.83
2023-04-02T07:42:01.880Z,65.12
2023-04-02T07:45:23.814Z,63.97
2023-04-02T07:48:47.814Z,64.13
2023-04-02T07:52:09.901Z,63.01
2023-04-02T07:55:31.740Z,64.54
2023-04-02T07:58:53.909Z,64.50
2023-04-02T08:02:22.782Z,63.28
2023-04-02T08:05:51.822Z,61.23
2023-04-02T08:09:13.734Z,62.19
2023-04-02T08:12:35.625Z,61.14
2023-04-02T08:15:59.651Z,59.48
2023-04-02T08:19:21.685Z,59.46
2023-04-02T08:22:44.933Z,59.99
2023-04-02T08:26:07.582Z,58.00
2023-04-02T08:29:32.382Z,57.17
2023-04-02T08:32:54.650Z,55.38
2023-04-02T08:36:18.266Z,55.72
2023-04-02T08:39:42.311Z,57.36
2023-04-02T08:43:22.388Z,55.23
2023-04-02T08:46:49.458Z,55.16
2023-04-02T08:50:20.895Z,54.76
2023-04-02T08:53:42.631Z,52.66
2023-04-02T08:57:08.956Z,51.76
2023-04-02T09:00:38.100Z,53.64
2023-04-02T09:04:00.816Z,51.37
2023-04-02T09:07:22.861Z,50.63
2023-04-02T09:10:50.277Z,50.53
2023-04-02T09:14:19.116Z,50.40
2023-04-02T09:17:53.236Z,50.33
2023-04-02T09:21:32.896Z,49.94
2023-04-02T09:24:57.902Z,51.05
2023-04-02T09:28:21.578Z,50.65
2023-04-02T09:31:47.700Z,50.24
2023-04-02T09:35:25.389Z,50.82
2023-04-02T09:39:06.638Z,50.53
2023-04-02T09:42:34.307Z,50.38
2023-04-02T09:46:01.564Z,51.53
2023-04-02T09:49:29.836Z,51.59
2023-04-02T09:52:51.958Z,50.17
2023-04-02T09:56:16.961Z,48.47
2023-04-02T09:59:39.150Z,49.97
2023-04-02T10:03:06.428Z,49.87
2023-04-02T10:06:31.991Z,49.18
2023-04-02T10:09:59.903Z,50.27
2023-04-02T10:13:28.815Z,48.17
2023-04-02T10:16:53.070Z,49.13
2023-04-02T10:20:21.254Z,49.71
2023-04-02T10:23:44.942Z,50.22
2023-04-02T10:27:22.717Z,48.58
2023-04-02T10:30:58.397Z,49.44
2023-04-02T10:34:26.020Z,48.75
2023-04-02T10:38:13.771Z,47.93
2023-04-02T10:41:42.652Z,47.63
2023-04-02T10:45:17.811Z,47.95
2023-04-02T10:48:48.955Z,46.84
2023-04-02T10:52:15.800Z,44.81
2023-04-02T10:55:43.625Z,44.94
2023-04-02T10:59:16.128Z,46.51
2023-04-02T11:02:47.515Z,45.79
2023-04-02T11:06:20.963Z,43.68
2023-04-02T11:09:45.518Z,45.71
2023-04-02T11:13:16.562Z,46.81
2023-04-02T11:16:44.010Z,45.32
2023-04-02T11:20:40.786Z,44.66
2023-04-02T11:24:04.089Z,44.31
2023-04-02T11:27:31.696Z,43.53
2023-04-02T11:30:53.759Z,45.61
2023-04-02T11:35:06.656Z,43.52
2023-04-02T11:38:55.022Z,45.09
2023-04-02T11:42:34.834Z,46.18
2023-04-02T11:45:59.542Z,45.01
2023-04-02T11:49:57.548Z,44.93
2023-04-02T11:53:23.822Z,46.05
2023-04-02T11:56:54.859Z,46.31
2023-04-02T12:00:29.591Z,44.97
2023-04-02T12:04:18.239Z,45.63
2023-04-02T12:08:08.324Z,45.28
2023-04-02T12:11:36.199Z,45.30
2023-04-02T12:14:59.634Z,47.10
2023-04-02T12:18:24.396Z,45.29
2023-04-02T12:21:47.888Z,46.56
2023-04-02T12:25:27.142Z,45.61
2023-04-02T12:28:49.056Z,45.84
2023-04-02T12:32:22.739Z,44.57
2023-04-02T12:35:46.715Z,47.82
2023-04-02T12:39:18.471Z,46.35
2023-04-02T12:42:42.031Z,43.75
2023-04-02T12:46:07.110Z,44.74
2023-04-02T12:49:35.846Z,44.91
2023-04-02T12:52:59.094Z,45.59
2023-04-02T12:56:23.175Z,46.26
2023-04-02T12:59:46.364Z,45.43
2023-04-02T13:03:22.629Z,45.19
2023-04-02T13:06:55.057Z,45.14
2023-04-02T13:10:26.460Z,44.74
2023-04-02T13:13:49.753Z,46.30
2023-04-02T13:17:43.556Z,45.55
2023-04-02T13:21:08.406Z,45.09
2023-04-02T13:24:32.198Z,45.74
2023-04-02T13:27:54.805Z,45.04
2023-04-02T13:31:17.959Z,45.69
2023-04-02T13:34:40.134Z,45.75
2023-04-02T13:38:04.181Z,43.19
2023-04-02T13:41:27.925Z,43.79
2023-04-02T13:44:49.635Z,44.48
2023-04-02T13:48:16.130Z,44.08
2023-04-02T13:51:42.231Z,43.35
2023-04-02T13:55:05.944Z,44.59
2023-04-02T13:58:29.446Z,44.99
2023-04-02T14:01:53.906Z,44.23
2023-04-02T14:05:32.002Z,45.43
2023-04-02T14:09:03.082Z,45.52
2023-04-02T14:12:42.691Z,43.64
2023-04-02T14:16:30.013Z,43.75
2023-04-02T14:20:09.437Z,44.10
2023-04-02T14:23:53.919Z,44.21
2023-04-02T14:27:27.475Z,43.90
2023-04-02T14:30:57.342Z,44.21
2023-04-02T14:34:29.233Z,44.40
2023-04-02T14:37:57.774Z,44.52
2023-04-02T14:41:24.602Z,45.60
2023-04-02T14:44:53.153Z,45.99
2023-04-02T14:48:29.262Z,46.47
2023-04-02T14:51:56.308Z,45.49
2023-04-02T14:55:27.673Z,46.01
2023-04-02T14:58:53.779Z,45.54
2023-04-02T15:02:19.832Z,46.92
2023-04-02T15:05:46.640Z,45.78
2023-04-02T15:09:14.654Z,46.74
2023-04-02T15:12:38.242Z,46.49
2023-04-02T15:16:11.349Z,46.13
2023-04-02T15:19:33.604Z,45.74
2023-04-02T15:23:08.135Z,46.50
2023-04-02T15:26:38.808Z,46.18
2023-04-02T15:30:09.070Z,46.20
2023-04-02T15:33:41.728Z,45.68
2023-04-02T15:37:13.398Z,46.33
2023-04-02T15:40:51.764Z,45.52
2023-04-02T15:44:16.461Z,46.24
2023-04-02T15:47:49.102Z,46.18
2023-04-02T15:51:24.245Z,45.83
2023-04-02T15:55:03.570Z,45.84
2023-04-02T15:58:45.184Z,45.93
2023-04-02T16:02:30.796Z,45.90
2023-04-02T16:06:05.757Z,45.86
2023-04-02T16:09:30.983Z,46.51
2023-04-02T16:12:54.356Z,47.42
2023-04-02T16:16:24.032Z,46.66
2023-04-02T16:19:51.287Z,46.43
2023-04-02T16:23:15.784Z,46.52
2023-04-02T16:26:50.074Z,46.58
2023-04-02T16:30:30.805Z,46.95
2023-04-02T16:34:00.461Z,47.25
2023-04-02T16:37:30.355Z,47.70
2023-04-02T16:41:08.254Z,47.97
2023-04-02T16:44:42.058Z,48.43
2023-04-02T16:48:13.302Z,48.64
2023-04-02T16:51:44.836Z,48.65
2023-04-02T16:55:23.540Z,49.30
2023-04-02T16:58:53.987Z,49.71
2023-04-02T17:02:29.044Z,49.79
2023-04-02T17:05:59.011Z,49.49
2023-04-02T17:09:32.126Z,50.02
2023-04-02T17:13:02.296Z,50.40
2023-04-02T17:16:33.673Z,50.50
2023-04-02T17:19:59.955Z,50.64
2023-04-02T17:23:21.794Z,50.99
2023-04-02T17:26:47.762Z,50.74
2023-04-02T17:30:17.056Z,50.93
2023-04-02T17:33:38.977Z,51.32
2023-04-02T17:37:13.519Z,51.17
2023-04-02T17:40:43.926Z,51.69
2023-04-02T17:44:22.830Z,51.79
2023-04-02T17:47:53.268Z,52.20
2023-04-02T17:51:23.493Z,52.14
2023-04-02T17:54:59.851Z,52.50
2023-04-02T17:58:40.296Z,52.97
2023-04-02T18:02:19.996Z,52.85
2023-04-02T18:05:46.718Z,53.20
2023-04-02T18:09:27.983Z,53.62
2023-04-02T18:12:57.765Z,53.91
2023-04-02T18:16:39.833Z,53.77
2023-04-02T18:20:17.196Z,54.30
2023-04-02T18:23:54.395Z,54.33
2023-04-02T18:27:36.520Z,54.60
2023-04-02T18:31:05.686Z,55.15
2023-04-02T18:34:42.586Z,55.48
2023-04-02T18:38:27.520Z,55.63
2023-04-02T18:41:59.750Z,55.91
2023-04-02T18:45:26.670Z,55.60
2023-04-02T18:48:57.589Z,55.33
2023-04-02T18:52:21.531Z,55.91
2023-04-02T18:55:49.765Z,55.95
2023-04-02T18:59:29.812Z,55.97
2023-04-02T19:02:57.241Z,56.33
2023-04-02T19:06:24.682Z,56.72
2023-04-02T19:09:48.898Z,56.53
2023-04-02T19:13:16.768Z,56.81
2023-04-02T19:16:58.862Z,57.04
2023-04-02T19:20:30.000Z,57.10
2023-04-02T19:24:03.714Z,57.29
2023-04-02T19:27:33.622Z,57.68
2023-04-02T19:31:12.457Z,57.96
2023-04-02T19:34:41.108Z,58.26
2023-04-02T19:38:13.495Z,58.53
2023-04-02T19:41:41.420Z,58.77
2023-04-02T19:45:04.089Z,59.12
2023-04-02T19:48:32.018Z,59.37
2023-04-02T19:51:54.127Z,59.95
2023-04-02T19:55:16.416Z,59.70
2023-04-02T19:58:38.121Z,60.39
2023-04-02T20:02:02.284Z,61.30
2023-04-02T20:05:25.912Z,61.00
2023-04-02T20:08:48.027Z,61.19
2023-04-02T20:12:09.792Z,61.56
2023-04-02T20:15:32.527Z,62.45
2023-04-02T20:18:54.676Z,63.19
2023-04-02T20:22:19.149Z,62.59
2023-04-02T20:25:47.013Z,63.06
2023-04-02T20:29:09.536Z,63.39
2023-04-02T20:32:31.320Z,63.67
2023-04-02T20:35:54.743Z,63.85
2023-04-02T20:39:19.592Z,64.44
2023-04-02T20:42:42.080Z,64.91
2023-04-02T20:46:05.938Z,65.01
2023-04-02T20:49:27.875Z,65.44
2023-04-02T20:52:49.574Z,65.69
2023-04-02T20:56:14.618Z,66.67
2023-04-02T20:59:36.397Z,66.75
2023-04-02T21:03:00.544Z,67.38
2023-04-02T21:06:24.576Z,67.49
2023-04-02T21:09:46.369Z,67.34
2023-04-02T21:13:09.496Z,68.65
2023-04-02T21:16:32.512Z,68.31
2023-04-02T21:19:54.399Z,67.93
2023-04-02T21:23:16.260Z,68.16
2023-04-02T21:26:40.352Z,68.61
2023-04-02T21:30:03.962Z,68.61
2023-04-02T21:33:26.360Z,69.18
2023-04-02T21:36:50.747Z,69.41
2023-04-02T21:40:13.234Z,70.05
2023-04-02T21:43:35.305Z,70.17
2023-04-02T21:46:59.052Z,69.83
2023-04-02T21:50:21.188Z,70.08
2023-04-02T21:53:43.949Z,71.74
2023-04-02T21:57:05.898Z,70.92
2023-04-02T22:00:28.797Z,71.50
2023-04-02T22:03:52.431Z,72.97
2023-04-02T22:07:14.352Z,72.10
2023-04-02T22:10:37.351Z,72.50
2023-04-02T22:13:59.410Z,72.28
2023-04-02T22:17:21.432Z,72.22
2023-04-02T22:20:44.628Z,72.51
2023-04-02T22:24:09.290Z,72.90
2023-04-02T22:27:30.933Z,72.79
2023-04-02T22:30:52.817Z,73.49
2023-04-02T22:34:14.695Z,73.20
2023-04-02T22:37:38.213Z,74.04
2023-04-02T22:41:11.110Z,73.31
2023-04-02T22:44:33.173Z,73.40
2023-04-02T22:47:55.061Z,73.12
2023-04-02T22:51:18.298Z,73.49
2023-04-02T22:54:41.711Z,73.30
2023-04-02T22:58:03.200Z,73.34
2023-04-02T23:01:27.283Z,74.40
2023-04-02T23:04:49.385Z,74.54
2023-04-02T23:08:11.115Z,73.93
2023-04-02T23:11:34.605Z,74.15
2023-04-02T23:14:57.249Z,75.09
2023-04-02T23:18:19.283Z,74.07
2023-04-02T23:21:41.202Z,74.11
2023-04-02T23:25:04.178Z,74.96
2023-04-02T23:28:27.640Z,74.63
2023-04-02T23:31:50.120Z,74.62
2023-04-02T23:35:12.072Z,74.90
2023-04-02T23:38:33.963Z,75.42
2023-04-02T23:41:55.875Z,75.90
2023-04-02T23:45:19.912Z,75.59
2023-04-02T23:48:42.063Z,76.10
2023-04-02T23:52:04.331Z,75.88
2023-04-02T23:55:26.050Z,76.24
2023-04-02T23:58:48.077Z,77.02
